Thunder radar more information blitzortung!


Radar de pluja more information rain snow radar


Visita la nostra xarxa de llocs de meteo:

Template documentation
and downloads

And another site



No particular awareness of the weather is required.    There are no Weather-warnings

Pagina Historial Weather Underground text

Diari Resum Desembre 26, 2017 Unitats:  Imperial    Mètric   Tant
« Previous Dia
SegĂźent Dia »
Diari Setmana Mensual Anual Personalitzada
  Maxima: Minima: Media:
Temperatura: TemperatureC °F 4.9 °F 8 °F
Punt de rosada: DewpointC °F -0.7 °F 1.7 °F
Humitat: Humidity % 58 % 64 %
Wind Speed: WindSpeedKMH mph 0.0 mph 4.8 mph
RĂ fegues de vent: WindSpeedGustKMH mph - -
Vent:- - SW
Pression baro: PressurehPa in 996.8 in -
Precipitacions: 0.0 in    
Historical Graphs
 
 
Dades de taula per Desembre 26, 2017
Temps Temperatura Punt de rosada Pression baro Vent Wind Speed RĂ fegues de vent Humitat Rainfall Rate (Hourly)
TemperatureC °F DewpointC °F PressurehPa in Calm     Humidity % HourlyPrecipMM in
00:00 6.1 °F 2.3 °F 1018.8 in WSW 1.6 mph 3.2 mph 77 % 0.0 in
00:03 6.0 °F 2.3 °F 1018.8 in Calm     77 % 0.0 in
00:06 6.0 °F 2.3 °F 1018.8 in Calm     77 % 0.0 in
10:50 6.7 °F 3.3 °F 1016.8 in North 1.9 mph   79 % 0.0 in
10:51 6.7 °F 3.3 °F 1016.8 in WSW 1.9 mph   79 % 0.0 in
10:55 6.7 °F 3.3 °F 1016.8 in Calm     79 % 0.0 in
10:56 6.7 °F 3.3 °F 1016.8 in Calm     79 % 0.0 in
11:01 6.7 °F 3.3 °F 1016.8 in Calm     79 % 0.0 in
11:02 6.7 °F 3.3 °F 1016.8 in Calm     79 % 0.0 in
11:07 8.0 °F 3.8 °F 1017.8 in ENE 9.3 mph 9.3 mph 75 % 0.0 in
11:08 8.0 °F 3.8 °F 1017.8 in NE 3.7 mph 3.7 mph 75 % 0.0 in
11:13 8.7 °F 4.5 °F 1017.8 in NE 4.2 mph 4.2 mph 75 % 0.0 in
11:18 9.0 °F 4.6 °F 1017.8 in NE 7.4 mph 7.4 mph 74 % 0.0 in
11:19 9.0 °F 4.6 °F 1017.8 in ENE 7.4 mph 7.4 mph 74 % 0.0 in
11:24 8.9 °F 4.3 °F 1017.8 in NNE 7.4 mph 7.4 mph 73 % 0.0 in
11:25 8.9 °F 4.3 °F 1017.8 in West 7.4 mph 7.4 mph 73 % 0.0 in
11:30 9.2 °F 4.4 °F 1017.8 in East 5.6 mph 5.6 mph 72 % 0.0 in
11:35 9.3 °F 4.5 °F 1017.8 in NNE 5.6 mph 5.6 mph 72 % 0.0 in
11:40 9.4 °F 4.6 °F 1017.8 in NNE 3.7 mph 3.7 mph 72 % 0.0 in
11:41 9.4 °F 4.6 °F 1017.8 in NE 4.7 mph 4.7 mph 72 % 0.0 in
11:45 9.7 °F 4.7 °F 1017.8 in NE 7.4 mph 7.4 mph 71 % 0.0 in
11:46 9.7 °F 4.7 °F 1017.8 in NE 5.6 mph 5.6 mph 71 % 0.0 in
11:51 10.1 °F 4.9 °F 1017.8 in NNE 5.0 mph 5.0 mph 70 % 0.0 in
11:55 10.1 °F 4.9 °F 1016.8 in NNE 5.6 mph 5.6 mph 70 % 0.0 in
11:57 10.2 °F 4.9 °F 1016.8 in ENE 3.7 mph 3.7 mph 70 % 0.0 in
12:02 10.5 °F 5.1 °F 1016.8 in NNE 6.9 mph 6.9 mph 69 % 0.0 in
12:07 10.6 °F 4.9 °F 1016.8 in NE 3.5 mph 3.5 mph 68 % 0.0 in
12:09 10.7 °F 5.1 °F 1015.8 in NNE 3.7 mph 3.7 mph 68 % 0.0 in
12:14 10.8 °F 5.1 °F 1015.8 in NE 11.1 mph 11.1 mph 68 % 0.0 in
12:19 10.5 °F 4.6 °F 1015.8 in NNE 7.4 mph 7.4 mph 67 % 0.0 in
12:20 10.6 °F 4.7 °F 1015.8 in North 9.3 mph 9.3 mph 67 % 0.0 in
12:25 10.9 °F 5.0 °F 1015.8 in ENE 4.2 mph 4.2 mph 67 % 0.0 in
12:30 11.0 °F 4.9 °F 1015.8 in East 3.7 mph 3.9 mph 66 % 0.0 in
12:35 11.1 °F 5.0 °F 1015.8 in ENE 3.9 mph 3.9 mph 66 % 0.0 in
12:37 11.1 °F 4.8 °F 1015.8 in SSE 6.1 mph 6.1 mph 65 % 0.0 in
12:40 11.1 °F 4.6 °F 1015.8 in South 5.6 mph 5.6 mph 64 % 0.0 in
12:42 11.3 °F 4.7 °F 1015.8 in East 5.6 mph 5.6 mph 64 % 0.0 in
12:45 11.3 °F 4.7 °F 1015.8 in SE 5.6 mph 5.8 mph 64 % 0.0 in
12:48 11.2 °F 4.4 °F 1015.8 in East 9.3 mph 9.3 mph 63 % 0.0 in
12:51 11.4 °F 4.8 °F 1015.8 in NW 5.3 mph 5.3 mph 64 % 0.0 in
12:54 11.8 °F 5.4 °F 1015.8 in WSW 3.7 mph 3.7 mph 65 % 0.0 in
12:57 12.2 °F 5.8 °F 1015.8 in SW 3.7 mph 3.7 mph 65 % 0.0 in
13:02 12.2 °F 5.8 °F 1015.8 in WNW 6.1 mph 6.1 mph 65 % 0.0 in
13:03 12.3 °F 5.9 °F 1015.8 in NNW 5.6 mph 5.6 mph 65 % 0.0 in
13:05 12.3 °F 5.7 °F 1015.8 in NNW 3.7 mph 3.7 mph 64 % 0.0 in
13:08 12.4 °F 5.8 °F 1014.8 in WSW 11.1 mph 11.1 mph 64 % 0.0 in
13:12 12.3 °F 5.7 °F 1014.8 in WNW 7.4 mph 7.4 mph 64 % 0.0 in
13:14 12.3 °F 5.4 °F 1014.8 in NW 3.7 mph 3.7 mph 63 % 0.0 in
13:19 12.4 °F 5.6 °F 1014.8 in WSW 11.1 mph 11.1 mph 63 % 0.0 in
13:20 12.4 °F 5.6 °F 1014.8 in WNW 9.3 mph 9.3 mph 63 % 0.0 in
13:25 12.6 °F 5.7 °F 1014.8 in NW 5.6 mph 5.6 mph 63 % 0.0 in
13:26 12.6 °F 5.7 °F 1014.8 in West 5.6 mph 5.6 mph 63 % 0.0 in
13:31 12.6 °F 5.5 °F 1014.8 in SW 7.4 mph 7.4 mph 62 % 0.0 in
13:36 12.4 °F 5.3 °F 1014.8 in WNW 7.4 mph 7.4 mph 62 % 0.0 in
13:39 12.4 °F 5.1 °F 1014.8 in WSW 5.6 mph 5.6 mph 61 % 0.0 in
13:42 12.3 °F 5.0 °F 1014.8 in West 7.4 mph 7.4 mph 61 % 0.0 in
13:47 12.4 °F 5.1 °F 1014.8 in East 3.7 mph 3.7 mph 61 % 0.0 in
13:49 12.5 °F 5.2 °F 1014.8 in WNW 5.8 mph 5.8 mph 61 % 0.0 in
13:54 12.5 °F 5.2 °F 1014.8 in West 4.2 mph 4.2 mph 61 % 0.0 in
13:55 12.4 °F 5.1 °F 1014.8 in NNW 5.6 mph 5.6 mph 61 % 0.0 in
14:00 12.4 °F 5.1 °F 1014.8 in WSW 5.6 mph 5.6 mph 61 % 0.0 in
14:01 12.4 °F 5.1 °F 1014.8 in WNW 5.6 mph 5.6 mph 61 % 0.0 in
14:06 12.2 °F 4.7 °F 1014.8 in SSE 5.6 mph 5.8 mph 60 % 0.0 in
14:08 12.2 °F 4.7 °F 1014.8 in WNW 7.6 mph 7.6 mph 60 % 0.0 in
14:11 12.0 °F 4.4 °F 1013.8 in West 9.3 mph 9.3 mph 60 % 0.0 in
14:13 12.0 °F 4.4 °F 1013.8 in WNW 3.9 mph 3.9 mph 60 % 0.0 in
14:16 12.0 °F 4.7 °F 1013.8 in North 5.6 mph 5.6 mph 61 % 0.0 in
14:19 12.0 °F 4.4 °F 1013.8 in NNW 4.7 mph 4.7 mph 60 % 0.0 in
14:24 11.8 °F 4.5 °F 1013.8 in West 5.8 mph 5.8 mph 61 % 0.0 in
14:25 11.7 °F 4.2 °F 1013.8 in NNW 9.3 mph 9.3 mph 60 % 0.0 in
14:30 11.5 °F 4.0 °F 1013.8 in WSW 9.3 mph 9.3 mph 60 % 0.0 in
14:31 11.5 °F 4.0 °F 1013.8 in WNW 7.4 mph 7.4 mph 60 % 0.0 in
14:36 11.5 °F 4.0 °F 1013.8 in SW 9.3 mph 9.3 mph 60 % 0.0 in
14:41 11.6 °F 4.1 °F 1013.8 in WSW 9.3 mph 9.3 mph 60 % 0.0 in
14:43 11.6 °F 4.1 °F 1013.8 in ENE 7.4 mph 7.4 mph 60 % 0.0 in
14:48 11.6 °F 4.1 °F 1013.8 in North 7.4 mph 7.4 mph 60 % 0.0 in
14:49 11.6 °F 4.1 °F 1013.8 in SW 3.7 mph 3.7 mph 60 % 0.0 in
14:52 11.6 °F 4.1 °F 1013.8 in West 9.7 mph 9.7 mph 60 % 0.0 in
14:54 11.5 °F 4.0 °F 1013.8 in WNW 5.6 mph 5.6 mph 60 % 0.0 in
14:59 11.5 °F 4.0 °F 1013.8 in WNW 2.3 mph 2.3 mph 60 % 0.0 in
15:00 11.5 °F 4.0 °F 1013.8 in WNW 2.3 mph 2.3 mph 60 % 0.0 in
15:05 11.6 °F 4.1 °F 1013.8 in WNW 3.2 mph 8.0 mph 60 % 0.0 in
15:09 11.7 °F 4.2 °F 1013.8 in WNW 5.6 mph 5.6 mph 60 % 0.0 in
15:11 11.6 °F 4.1 °F 1013.8 in NNW 7.4 mph 7.4 mph 60 % 0.0 in
15:15 11.6 °F 4.1 °F 1013.8 in WSW 5.6 mph 5.6 mph 60 % 0.0 in
15:20 11.5 °F 4.0 °F 1013.8 in West 3.7 mph 3.7 mph 60 % 0.0 in
15:23 11.6 °F 4.1 °F 1013.8 in West 5.0 mph 5.0 mph 60 % 0.0 in
15:26 11.7 °F 4.2 °F 1013.8 in WNW 5.3 mph 5.3 mph 60 % 0.0 in
15:29 11.7 °F 4.2 °F 1013.8 in WSW 9.3 mph 9.3 mph 60 % 0.0 in
15:32 11.6 °F 4.1 °F 1013.8 in WSW 5.6 mph 5.6 mph 60 % 0.0 in
15:37 11.4 °F 3.7 °F 1013.8 in South 9.3 mph 9.3 mph 59 % 0.0 in
15:38 11.4 °F 3.7 °F 1013.8 in WSW 5.6 mph 5.6 mph 59 % 0.0 in
15:40 11.3 °F 3.6 °F 1013.8 in WSW 7.4 mph 7.4 mph 59 % 0.0 in
15:45 10.8 °F 2.8 °F 1013.8 in SSW 11.1 mph 11.1 mph 58 % 0.0 in
15:49 10.6 °F 2.7 °F 1013.8 in West 5.6 mph 6.1 mph 58 % 0.0 in
15:51 10.5 °F 2.6 °F 1013.8 in NW 9.3 mph 9.3 mph 58 % 0.0 in
15:56 10.5 °F 2.6 °F 1013.8 in SW 7.4 mph 7.4 mph 58 % 0.0 in
15:57 10.3 °F 2.4 °F 1013.8 in SSW 7.4 mph 7.4 mph 58 % 0.0 in
15:58 10.4 °F 2.5 °F 1013.8 in SW 6.1 mph 6.1 mph 58 % 0.0 in
16:02 10.2 °F 2.3 °F 1013.8 in SSW 7.4 mph 7.4 mph 58 % 0.0 in
16:07 10.0 °F 2.1 °F 1013.8 in SW 5.6 mph 5.6 mph 58 % 0.0 in
16:12 10.0 °F 2.3 °F 1013.8 in WSW 5.6 mph 5.6 mph 59 % 0.0 in
16:13 10.0 °F 2.3 °F 1013.8 in WSW 5.6 mph 5.6 mph 59 % 0.0 in
16:18 9.9 °F 2.3 °F 1013.8 in West 3.7 mph 3.7 mph 59 % 0.0 in
16:23 9.7 °F 2.1 °F 1013.8 in WNW 3.7 mph 3.7 mph 59 % 0.0 in
16:26 9.5 °F 1.9 °F 1013.8 in West 7.4 mph 7.4 mph 59 % 0.0 in
16:29 9.4 °F 1.8 °F 1013.8 in WSW 6.4 mph 6.4 mph 59 % 0.0 in
16:34 9.1 °F 1.3 °F 1013.8 in NW 7.4 mph 7.4 mph 58 % 0.0 in
16:35 9.1 °F 1.3 °F 1013.8 in WNW 7.4 mph 7.4 mph 58 % 0.0 in
16:37 9.1 °F 1.3 °F 1013.8 in WNW 3.7 mph 3.7 mph 58 % 0.0 in
16:40 9.0 °F 1.2 °F 1013.8 in WSW 3.7 mph 3.7 mph 58 % 0.0 in
16:45 8.9 °F 1.3 °F 1013.8 in SW 9.3 mph 9.3 mph 59 % 0.0 in
16:50 8.7 °F 1.1 °F 1013.8 in SW 5.6 mph 5.6 mph 59 % 0.0 in
16:51 8.7 °F 1.1 °F 1013.8 in WSW 5.6 mph 5.6 mph 59 % 0.0 in
16:52 8.6 °F 1.1 °F 1013.8 in West 5.6 mph 5.6 mph 59 % 0.0 in
16:57 8.5 °F 0.9 °F 1013.8 in WNW 5.6 mph 5.6 mph 59 % 0.0 in
16:59 8.4 °F 0.8 °F 1013.8 in WSW 3.7 mph 3.7 mph 59 % 0.0 in
17:00 8.4 °F 0.8 °F 1013.8 in WSW 5.6 mph 5.6 mph 59 % 0.0 in
17:05 8.3 °F 1.0 °F 1013.8 in WSW 5.6 mph 5.6 mph 60 % 0.0 in
17:06 8.2 °F 0.9 °F 1013.8 in WSW 6.4 mph 6.4 mph 60 % 0.0 in
17:11 8.1 °F 0.8 °F 1011.7 in WSW 5.6 mph 5.6 mph 60 % 0.0 in
17:16 8.0 °F 0.7 °F 1011.7 in SW 7.4 mph 7.4 mph 60 % 0.0 in
17:17 8.0 °F 0.7 °F 1011.7 in WSW 7.4 mph 7.4 mph 60 % 0.0 in
17:19 8.0 °F 0.7 °F 1011.7 in WSW 7.4 mph 7.4 mph 60 % 0.0 in
17:22 7.9 °F 0.6 °F 1011.7 in WSW 3.9 mph 3.9 mph 60 % 0.0 in
17:24 7.8 °F 0.5 °F 1011.7 in WSW 5.6 mph 5.6 mph 60 % 0.0 in
17:28 7.7 °F 0.4 °F 1011.7 in WSW 3.9 mph 3.9 mph 60 % 0.0 in
17:33 7.6 °F 0.3 °F 1011.7 in WSW 5.6 mph 5.6 mph 60 % 0.0 in
17:38 7.6 °F 0.3 °F 1011.7 in WSW 7.4 mph 7.4 mph 60 % 0.0 in
17:43 7.5 °F 0.4 °F 1011.7 in SW 7.4 mph 7.4 mph 61 % 0.0 in
17:44 7.5 °F 0.4 °F 1011.7 in WSW 7.4 mph 7.4 mph 61 % 0.0 in
17:49 7.4 °F 0.4 °F 1011.7 in WSW 6.4 mph 6.4 mph 61 % 0.0 in
17:50 7.4 °F 0.4 °F 1011.7 in SSW 7.4 mph 7.4 mph 61 % 0.0 in
17:51 7.4 °F 0.4 °F 1011.7 in WNW 7.4 mph 7.4 mph 61 % 0.0 in
17:55 7.4 °F 0.4 °F 1011.7 in WSW 4.2 mph 4.2 mph 61 % 0.0 in
18:00 7.3 °F 0.3 °F 1011.7 in SW 3.7 mph 3.7 mph 61 % 0.0 in
18:05 7.2 °F 0.2 °F 1011.7 in WSW 5.6 mph 5.6 mph 61 % 0.0 in
18:10 7.0 °F 0.0 °F 1011.7 in WSW 3.7 mph 3.7 mph 61 % 0.0 in
18:11 7.0 °F 0.0 °F 1011.7 in SSW 3.7 mph 3.7 mph 61 % 0.0 in
18:12 7.0 °F 0.0 °F 1011.7 in SW 3.7 mph 3.7 mph 61 % 0.0 in
18:17 7.0 °F 0.0 °F 1011.7 in West 5.6 mph 5.6 mph 61 % 0.0 in
18:20 5.6 °F 0.2 °F 1005.0 in West 8.0 mph 8.0 mph 68 % 0.0 in
18:21 7.1 °F 0.1 °F 1011.7 in WSW 3.7 mph 3.7 mph 61 % 0.0 in
18:24 7.1 °F 0.1 °F 1011.7 in South 3.7 mph 3.7 mph 61 % 0.0 in
18:28 6.9 °F -0.1 °F 1011.7 in SW 3.7 mph 3.7 mph 61 % 0.0 in
18:29 6.9 °F -0.1 °F 1011.7 in SSW 2.3 mph   61 % 0.0 in
18:30 5.5 °F -0.2 °F 1005.0 in WSW 3.2 mph 4.8 mph 67 % 0.0 in
18:34 6.9 °F -0.1 °F 1011.7 in SW 3.7 mph 3.7 mph 61 % 0.0 in
18:39 6.8 °F 0.0 °F 1010.7 in WSW 3.7 mph 3.7 mph 62 % 0.0 in
18:40 6.8 °F 0.0 °F 1010.7 in WSW 3.7 mph 3.7 mph 62 % 0.0 in
18:45 6.7 °F -0.1 °F 1010.7 in WSW 1.9 mph 1.9 mph 62 % 0.0 in
18:46 6.7 °F -0.1 °F 1010.7 in WSW 1.9 mph 1.9 mph 62 % 0.0 in
18:48 6.7 °F -0.1 °F 1010.7 in WSW 1.9 mph 1.9 mph 62 % 0.0 in
18:50 5.7 °F 0.1 °F 1003.9 in West 4.8 mph 6.4 mph 67 % 0.0 in
18:53 6.6 °F -0.2 °F 1010.7 in Calm     62 % 0.0 in
18:56 6.5 °F -0.3 °F 1010.7 in Calm     62 % 0.0 in
19:00 6.5 °F -0.3 °F 1010.7 in Calm     62 % 0.0 in
19:02 6.4 °F -0.3 °F 1010.7 in Calm     62 % 0.0 in
19:03 6.4 °F -0.3 °F 1010.7 in Calm     62 % 0.0 in
19:05 6.4 °F -0.3 °F 1010.7 in Calm     62 % 0.0 in
19:10 6.2 °F -0.3 °F 1010.7 in NNE 3.7 mph   63 % 0.0 in
19:15 6.1 °F -0.4 °F 1010.7 in WNW 3.2 mph 3.2 mph 63 % 0.0 in
19:16 6.1 °F -0.4 °F 1010.7 in NW 3.5 mph 3.5 mph 63 % 0.0 in
19:18 6.1 °F -0.4 °F 1010.7 in NW 3.7 mph   63 % 0.0 in
19:20 6.1 °F 0.2 °F 1002.9 in West 1.6 mph 4.8 mph 66 % 0.0 in
19:21 6.1 °F -0.4 °F 1010.7 in WSW 3.7 mph 3.7 mph 63 % 0.0 in
19:23 6.1 °F -0.4 °F 1010.7 in WSW 7.6 mph 7.6 mph 63 % 0.0 in
19:26 6.1 °F -0.4 °F 1010.0 in West 3.7 mph 3.7 mph 63 % 0.0 in
19:30 6.2 °F 0.1 °F 1002.9 in West 3.2 mph 6.4 mph 65 % 0.0 in
19:31 6.0 °F -0.5 °F 1010.0 in North 3.7 mph 3.7 mph 63 % 0.0 in
19:33 6.0 °F -0.5 °F 1010.0 in NW 1.9 mph   63 % 0.0 in
19:38 6.0 °F -0.5 °F 1009.0 in WNW 3.7 mph   63 % 0.0 in
19:40 6.2 °F 0.1 °F 1002.9 in WSW 3.2 mph 4.8 mph 65 % 0.0 in
19:43 6.0 °F -0.5 °F 1009.0 in West 2.3 mph 2.3 mph 63 % 0.0 in
19:44 6.1 °F -0.4 °F 1009.0 in West 2.6 mph 2.6 mph 63 % 0.0 in
19:48 6.1 °F -0.4 °F 1009.0 in West 2.6 mph 2.6 mph 63 % 0.0 in
19:50 6.2 °F -0.3 °F 1009.0 in West 2.6 mph 2.6 mph 63 % 0.0 in
19:55 6.2 °F -0.1 °F 1010.0 in Calm     64 % 0.0 in
19:56 6.2 °F -0.1 °F 1010.0 in Calm     64 % 0.0 in
20:00 6.4 °F 0.3 °F 1002.9 in WSW 4.8 mph 9.7 mph 65 % 0.0 in
20:01 6.0 °F -0.3 °F 1010.0 in West 1.9 mph   64 % 0.0 in
20:02 6.0 °F -0.3 °F 1010.0 in West 1.9 mph   64 % 0.0 in
20:07 6.0 °F -0.3 °F 1010.0 in WSW 3.7 mph 3.7 mph 64 % 0.0 in
20:09 5.9 °F -0.4 °F 1010.0 in WSW 1.9 mph   64 % 0.0 in
20:10 5.9 °F -0.4 °F 1010.0 in Calm     64 % 0.0 in
20:15 5.8 °F -0.5 °F 1010.0 in WSW 3.9 mph 3.9 mph 64 % 0.0 in
20:18 5.7 °F -0.6 °F 1010.0 in WSW 1.9 mph 1.9 mph 64 % 0.0 in
20:20 6.3 °F 0.4 °F 1001.9 in West 4.8 mph 6.4 mph 66 % 0.0 in
20:21 5.7 °F -0.6 °F 1010.0 in WSW 2.3 mph 2.3 mph 64 % 0.0 in
20:25 5.7 °F -0.6 °F 1010.0 in WSW 4.2 mph 4.2 mph 64 % 0.0 in
20:29 5.7 °F -0.6 °F 1010.0 in WSW 3.7 mph 3.7 mph 64 % 0.0 in
20:30 5.7 °F -0.6 °F 1010.0 in WSW 3.7 mph 3.7 mph 64 % 0.0 in
20:35 5.7 °F -0.6 °F 1010.0 in WSW 3.7 mph 3.7 mph 64 % 0.0 in
20:36 5.7 °F -0.6 °F 1010.0 in WSW 3.7 mph 3.7 mph 64 % 0.0 in
20:40 6.3 °F 0.6 °F 1001.9 in West 3.2 mph 6.4 mph 67 % 0.0 in
20:41 5.7 °F -0.6 °F 1009.0 in SW 1.9 mph   64 % 0.0 in
20:42 5.7 °F -0.6 °F 1009.0 in Calm     64 % 0.0 in
20:45 5.7 °F -0.4 °F 1009.0 in SW 1.9 mph   65 % 0.0 in
20:50 5.6 °F -0.4 °F 1009.0 in SW 1.9 mph   65 % 0.0 in
20:52 5.6 °F -0.4 °F 1009.0 in SW 1.9 mph   65 % 0.0 in
20:57 5.5 °F -0.6 °F 1008.0 in WSW 2.6 mph 2.6 mph 65 % 0.0 in
20:58 5.5 °F -0.6 °F 1008.0 in WSW 1.9 mph 2.3 mph 65 % 0.0 in
21:00 6.0 °F 0.9 °F 1000.9 in Calm   3.2 mph 70 % 0.0 in
21:03 5.4 °F -0.7 °F 1008.0 in WSW 1.9 mph   65 % 0.0 in
21:04 5.4 °F -0.7 °F 1008.0 in WSW 1.9 mph   65 % 0.0 in
21:07 5.4 °F -0.7 °F 1008.0 in West 1.9 mph   65 % 0.0 in
21:10 5.5 °F -0.6 °F 1008.0 in WSW 3.7 mph 3.7 mph 65 % 0.0 in
21:15 5.5 °F -0.6 °F 1008.0 in West 3.7 mph 3.7 mph 65 % 0.0 in
21:17 5.6 °F -0.4 °F 1008.0 in WSW 3.9 mph 3.9 mph 65 % 0.0 in
21:20 5.4 °F 0.9 °F 999.9 in Calm   1.6 mph 73 % 0.0 in
21:21 5.7 °F -0.4 °F 1008.0 in WSW 7.4 mph 7.4 mph 65 % 0.0 in
21:23 5.7 °F -0.4 °F 1008.0 in SW 5.6 mph 5.6 mph 65 % 0.0 in
21:27 5.5 °F -0.6 °F 1008.0 in WSW 3.7 mph 3.7 mph 65 % 0.0 in
21:30 5.3 °F 1.1 °F 999.9 in Calm   1.6 mph 74 % 0.0 in
21:32 5.5 °F -0.6 °F 1008.0 in West 8.7 mph 8.7 mph 65 % 0.0 in
21:37 5.6 °F -0.4 °F 1008.0 in WSW 3.7 mph 3.7 mph 65 % 0.0 in
21:38 5.6 °F -0.4 °F 1008.0 in WSW 5.6 mph 5.6 mph 65 % 0.0 in
21:40 5.2 °F 0.9 °F 999.9 in Calm   3.2 mph 74 % 0.0 in
21:43 5.5 °F -0.3 °F 1008.0 in West 5.6 mph 5.6 mph 66 % 0.0 in
21:44 5.5 °F -0.3 °F 1008.0 in WSW 5.6 mph 5.6 mph 66 % 0.0 in
21:45 5.6 °F -0.3 °F 1008.0 in WSW 5.6 mph 5.6 mph 66 % 0.0 in
21:50 5.7 °F -0.2 °F 1008.0 in WSW 5.6 mph 5.6 mph 66 % 0.0 in
21:55 5.6 °F -0.3 °F 1008.0 in West 3.7 mph 3.7 mph 66 % 0.0 in
21:57 5.6 °F -0.3 °F 1008.0 in WSW 7.4 mph 7.4 mph 66 % 0.0 in
21:59 5.6 °F -0.3 °F 1008.0 in WSW 5.6 mph 5.6 mph 66 % 0.0 in
22:00 5.0 °F 1.1 °F 999.9 in SW 1.6 mph 1.6 mph 76 % 0.0 in
22:04 5.7 °F -0.2 °F 1008.0 in West 5.6 mph 5.6 mph 66 % 0.0 in
22:09 5.7 °F -0.2 °F 1007.0 in West 4.2 mph 4.2 mph 66 % 0.0 in
22:10 5.8 °F -0.1 °F 1007.0 in West 4.2 mph 4.2 mph 66 % 0.0 in
22:11 5.8 °F -0.1 °F 1007.0 in West 4.2 mph 4.2 mph 66 % 0.0 in
22:16 5.8 °F -0.1 °F 1007.0 in WNW 3.7 mph   66 % 0.0 in
22:19 5.8 °F -0.1 °F 1007.0 in WSW 3.7 mph 3.7 mph 66 % 0.0 in
22:20 5.7 °F -0.2 °F 1007.0 in NNW 3.7 mph 3.7 mph 66 % 0.0 in
22:25 5.7 °F 0.1 °F 1007.0 in WNW 3.7 mph 3.7 mph 67 % 0.0 in
22:26 5.7 °F 0.1 °F 1007.0 in West 3.7 mph 3.7 mph 67 % 0.0 in
22:30 5.7 °F 0.1 °F 1007.0 in WSW 3.7 mph 3.7 mph 67 % 0.0 in
22:34 5.7 °F -0.2 °F 1007.0 in WSW 5.6 mph 5.6 mph 66 % 0.0 in
22:35 5.7 °F -0.2 °F 1007.0 in WNW 3.7 mph 3.7 mph 66 % 0.0 in
22:40 5.7 °F 0.1 °F 1007.0 in WNW 5.6 mph 5.6 mph 67 % 0.0 in
22:42 5.7 °F 0.1 °F 1007.0 in West 3.7 mph 3.7 mph 67 % 0.0 in
22:43 5.7 °F 0.1 °F 1007.0 in WNW 3.7 mph 3.7 mph 67 % 0.0 in
22:48 5.7 °F 0.1 °F 1007.0 in West 7.4 mph 7.4 mph 67 % 0.0 in
22:50 4.9 °F 1.6 °F 998.9 in Calm   1.6 mph 79 % 0.0 in
22:53 5.7 °F 0.1 °F 1007.0 in WSW 6.9 mph 6.9 mph 67 % 0.0 in
22:54 5.7 °F 0.1 °F 1007.0 in WSW 7.4 mph 7.4 mph 67 % 0.0 in
22:55 5.7 °F 0.1 °F 1007.0 in WSW 7.4 mph 7.4 mph 67 % 0.0 in
22:59 5.7 °F 0.1 °F 1007.0 in West 7.4 mph 7.4 mph 67 % 0.0 in
23:00 5.0 °F 1.7 °F 998.9 in NNE 1.6 mph 3.2 mph 79 % 0.0 in
23:02 5.7 °F 0.1 °F 1007.0 in WSW 7.4 mph 7.4 mph 67 % 0.0 in
23:07 5.6 °F -0.1 °F 1007.0 in West 5.8 mph 5.8 mph 67 % 0.0 in
23:10 5.0 °F 1.5 °F 997.9 in WSW 1.6 mph 4.8 mph 78 % 0.0 in
23:12 5.6 °F -0.1 °F 1006.0 in WSW 7.4 mph 7.4 mph 67 % 0.0 in
23:13 5.6 °F -0.1 °F 1006.0 in West 6.1 mph 6.1 mph 67 % 0.0 in
23:17 5.5 °F -0.2 °F 1006.0 in WSW 5.6 mph 5.6 mph 67 % 0.0 in
23:19 5.5 °F -0.2 °F 1006.0 in West 5.6 mph 5.6 mph 67 % 0.0 in
23:20 5.0 °F 1.5 °F 997.9 in WSW 1.6 mph 1.6 mph 78 % 0.0 in
23:24 5.5 °F -0.2 °F 1006.0 in West 6.9 mph 6.9 mph 67 % 0.0 in
23:29 5.5 °F -0.2 °F 1006.0 in West 5.6 mph 5.6 mph 67 % 0.0 in
23:30 5.2 °F 1.7 °F 997.9 in West 1.6 mph 3.2 mph 78 % 0.0 in
23:34 5.6 °F 0.2 °F 1006.0 in West 7.9 mph 7.9 mph 68 % 0.0 in
23:35 5.6 °F 0.2 °F 1006.0 in West 5.8 mph 5.8 mph 68 % 0.0 in
23:38 5.6 °F 0.2 °F 1006.0 in SW 5.6 mph 5.6 mph 68 % 0.0 in
23:40 5.3 °F 1.9 °F 997.9 in Calm   1.6 mph 79 % 0.0 in
23:41 5.6 °F 0.2 °F 1006.0 in WSW 10.0 mph 10.0 mph 68 % 0.0 in
23:46 5.6 °F 0.2 °F 1006.0 in West 9.3 mph 9.3 mph 68 % 0.0 in
23:50 5.3 °F 2.1 °F 996.8 in West 1.6 mph 3.2 mph 80 % 0.0 in
23:51 5.6 °F 0.2 °F 1006.0 in West 7.4 mph 7.4 mph 68 % 0.0 in
23:56 5.5 °F 0.1 °F 1005.0 in WSW 7.4 mph 7.4 mph 68 % 0.0 in
23:57 5.5 °F 0.1 °F 1005.0 in West 9.3 mph 9.3 mph 68 % 0.0 in
23:58 5.5 °F 0.1 °F 1005.0 in West 5.6 mph 5.6 mph 68 % 0.0 in
Meteo Sesrovires
Elogis d' Weather Underground - 2 mb

Guio original per  Jim McMurry - jmcmurry@mwt.net Adaptat per a la plantilla per  Wim van der Kuil - Leuven-Template.eu

Trobareu la nostra informacio del temps tambe a:

Weather Underground

AWEKAS